Laurel Bay, South Carolina
Current Conditions -  °F | °C
As of 9:15 PM on Saturday 22 Nov 2014 (Local Time) from KARW Reporting Station
Overcast Overcast  
Wind Chill: 57°   Ceiling: 10000
Heat Index: 57°   Visibility: 10mi
Dew Point: 55°   Wind: 9mph
Humidity: 94%   Direction: 50°NE
Pressure: 30.28"   Gusts: NA
Location:  32.4123°N, 80.7058°W
Report Text: KARW 230215Z AUTO 05008KT 10SM OVC100 14/13 A3028 RMK AO2
Loading
Personal Weather Stations






























Interactive Weather Map New forecast layout! Learn more

10-Day Weather Forecast

Advertisements
Track Severe Weather on mobile